createdAt,value
2019-05-06T00:01:54.120Z,96.50
2019-05-06T00:04:24.657Z,97.30
2019-05-06T00:06:54.822Z,97.10
2019-05-06T00:09:24.551Z,97.50
2019-05-06T00:11:54.607Z,97.60
2019-05-06T00:14:25.401Z,98.10
2019-05-06T00:16:58.138Z,98.20
2019-05-06T00:19:25.816Z,98.80
2019-05-06T00:21:55.108Z,99.30
2019-05-06T00:24:26.708Z,99.40
2019-05-06T00:27:04.688Z,99.60
2019-05-06T00:29:34.906Z,99.90
2019-05-06T00:32:04.623Z,99.90
2019-05-06T00:34:34.191Z,99.90
2019-05-06T00:37:03.989Z,99.90
2019-05-06T00:39:54.706Z,99.90
2019-05-06T00:42:35.165Z,99.90
2019-05-06T00:45:05.717Z,99.90
2019-05-06T00:47:35.116Z,99.90
2019-05-06T00:50:05.191Z,99.90
2019-05-06T00:52:34.895Z,99.90
2019-05-06T00:55:04.368Z,99.90
2019-05-06T00:57:46.189Z,99.90
2019-05-06T01:00:34.667Z,99.90
2019-05-06T01:03:04.361Z,99.90
2019-05-06T01:05:33.881Z,99.90
2019-05-06T01:08:04.121Z,99.90
2019-05-06T01:10:34.374Z,99.90
2019-05-06T01:13:14.531Z,99.90
2019-05-06T01:15:44.549Z,99.90
2019-05-06T01:18:13.892Z,99.90
2019-05-06T01:20:44.623Z,99.90
2019-05-06T01:23:15.408Z,99.90
2019-05-06T01:25:44.715Z,99.90
2019-05-06T01:28:14.064Z,99.90
2019-05-06T01:30:44.355Z,99.90
2019-05-06T01:33:14.578Z,99.90
2019-05-06T01:35:44.439Z,99.90
2019-05-06T01:38:39.102Z,99.90
2019-05-06T01:41:26.276Z,99.90
2019-05-06T01:43:55.667Z,99.90
2019-05-06T01:46:25.504Z,99.90
2019-05-06T01:48:54.798Z,99.90
2019-05-06T01:51:24.305Z,99.90
2019-05-06T01:53:54.501Z,99.90
2019-05-06T01:56:24.243Z,99.90
2019-05-06T01:58:53.781Z,99.90
2019-05-06T02:01:25.128Z,99.90
2019-05-06T02:03:54.126Z,99.90
2019-05-06T02:06:24.980Z,99.90
2019-05-06T02:08:54.659Z,99.90
2019-05-06T02:11:24.240Z,99.90
2019-05-06T02:13:53.927Z,99.90
2019-05-06T02:16:24.093Z,99.90
2019-05-06T02:18:54.100Z,99.90
2019-05-06T02:21:43.722Z,99.90
2019-05-06T02:24:17.773Z,99.90
2019-05-06T02:26:47.081Z,99.90
2019-05-06T02:29:18.496Z,99.90
2019-05-06T02:32:16.094Z,99.90
2019-05-06T02:34:47.360Z,99.90
2019-05-06T02:37:25.139Z,99.90
2019-05-06T02:39:53.674Z,99.90
2019-05-06T02:42:23.993Z,99.90
2019-05-06T02:44:54.346Z,99.90
2019-05-06T02:47:43.099Z,99.90
2019-05-06T02:50:15.057Z,99.90
2019-05-06T02:52:44.467Z,99.90
2019-05-06T02:55:13.828Z,99.90
2019-05-06T02:57:44.030Z,99.90
2019-05-06T03:00:16.133Z,99.90
2019-05-06T03:02:48.232Z,99.90
2019-05-06T03:05:16.455Z,99.90
2019-05-06T03:08:04.903Z,99.90
2019-05-06T03:10:34.253Z,99.90
2019-05-06T03:13:03.603Z,99.90
2019-05-06T03:15:34.284Z,99.90
2019-05-06T03:18:03.866Z,99.90
2019-05-06T03:20:47.644Z,99.90
2019-05-06T03:23:18.633Z,99.90
2019-05-06T03:25:48.082Z,99.90
2019-05-06T03:28:17.510Z,99.90
2019-05-06T03:30:46.898Z,99.90
2019-05-06T03:33:54.146Z,99.90
2019-05-06T03:36:00.444Z,99.90
2019-05-06T03:38:18.152Z,99.90
2019-05-06T03:40:47.475Z,99.90
2019-05-06T03:43:16.822Z,99.90
2019-05-06T03:46:08.223Z,99.90
2019-05-06T03:48:39.803Z,99.90
2019-05-06T03:51:09.158Z,99.90
2019-05-06T03:53:43.142Z,99.90
2019-05-06T03:56:16.835Z,99.90
2019-05-06T03:58:45.927Z,99.90
2019-05-06T04:01:16.869Z,99.90
2019-05-06T04:03:51.998Z,99.90
2019-05-06T04:06:17.266Z,99.90
2019-05-06T04:08:47.686Z,99.90
2019-05-06T04:11:18.959Z,99.90
2019-05-06T04:13:49.726Z,99.90
2019-05-06T04:16:35.804Z,99.90
2019-05-06T04:19:13.032Z,99.90
2019-05-06T04:21:52.835Z,99.90
2019-05-06T04:24:43.161Z,99.90
2019-05-06T04:27:33.305Z,99.90
2019-05-06T04:30:04.370Z,99.90
2019-05-06T04:32:34.114Z,99.90
2019-05-06T04:35:04.421Z,99.90
2019-05-06T04:37:34.577Z,99.90
2019-05-06T04:40:04.713Z,99.90
2019-05-06T04:42:34.662Z,99.90
2019-05-06T04:45:04.821Z,99.90
2019-05-06T04:47:34.370Z,99.90
2019-05-06T04:50:04.999Z,99.90
2019-05-06T04:52:34.611Z,99.90
2019-05-06T04:55:04.503Z,99.90
2019-05-06T04:57:33.942Z,99.90
2019-05-06T05:00:04.436Z,99.90
2019-05-06T05:02:34.009Z,99.90
2019-05-06T05:05:04.365Z,99.90
2019-05-06T05:07:34.236Z,99.90
2019-05-06T05:10:08.496Z,99.90
2019-05-06T05:12:46.203Z,99.90
2019-05-06T05:15:25.328Z,99.90
2019-05-06T05:18:16.859Z,99.90
2019-05-06T05:20:46.920Z,99.90
2019-05-06T05:23:16.439Z,99.90
2019-05-06T05:25:45.794Z,99.90
2019-05-06T05:28:15.280Z,99.90
2019-05-06T05:30:44.900Z,99.90
2019-05-06T05:33:14.250Z,99.90
2019-05-06T05:35:43.517Z,99.90
2019-05-06T05:38:13.239Z,99.90
2019-05-06T05:40:43.092Z,99.90
2019-05-06T05:43:27.803Z,99.90
2019-05-06T05:45:57.398Z,99.90
2019-05-06T05:48:42.772Z,99.90
2019-05-06T05:51:12.759Z,99.90
2019-05-06T05:53:42.731Z,99.90
2019-05-06T05:56:12.955Z,99.90
2019-05-06T05:58:42.535Z,99.90
2019-05-06T06:01:12.676Z,99.90
2019-05-06T06:03:42.428Z,99.90
2019-05-06T06:06:12.664Z,99.90
2019-05-06T06:08:43.143Z,99.90
2019-05-06T06:11:18.720Z,99.90
2019-05-06T06:13:48.332Z,99.90
2019-05-06T06:16:36.942Z,99.90
2019-05-06T06:19:24.230Z,99.90
2019-05-06T06:22:02.601Z,99.90
2019-05-06T06:24:32.992Z,99.90
2019-05-06T06:27:03.048Z,99.30
2019-05-06T06:29:33.084Z,97.90
2019-05-06T06:32:23.060Z,97.50
2019-05-06T06:35:10.109Z,96.70
2019-05-06T06:37:49.395Z,96.20
2019-05-06T06:40:22.268Z,96.00
2019-05-06T06:42:55.330Z,93.60
2019-05-06T06:45:27.343Z,93.20
2019-05-06T06:47:56.913Z,91.90
2019-05-06T06:50:26.438Z,92.00
2019-05-06T06:52:55.856Z,91.50
2019-05-06T06:55:25.253Z,89.50
2019-05-06T06:58:13.496Z,83.90
2019-05-06T07:01:03.132Z,83.00
2019-05-06T07:03:43.153Z,80.80
2019-05-06T07:06:22.471Z,79.50
2019-05-06T07:08:52.084Z,77.10
2019-05-06T07:11:22.503Z,77.30
2019-05-06T07:13:55.314Z,78.00
2019-05-06T07:16:24.694Z,77.90
2019-05-06T07:18:54.138Z,77.90
2019-05-06T07:21:29.342Z,78.80
2019-05-06T07:23:58.817Z,78.60
2019-05-06T07:26:31.828Z,78.90
2019-05-06T07:29:03.934Z,78.10
2019-05-06T07:31:33.046Z,77.60
2019-05-06T07:34:02.670Z,78.90
2019-05-06T07:36:32.376Z,77.50
2019-05-06T07:39:04.199Z,77.00
2019-05-06T07:42:03.994Z,75.30
2019-05-06T07:44:47.576Z,73.70
2019-05-06T07:47:32.896Z,73.70
2019-05-06T07:50:02.381Z,74.60
2019-05-06T07:52:32.583Z,72.60
2019-05-06T07:55:02.508Z,72.50
2019-05-06T07:57:32.971Z,70.70
2019-05-06T08:00:03.533Z,72.30
2019-05-06T08:02:33.116Z,71.30
2019-05-06T08:05:02.724Z,69.40
2019-05-06T08:07:33.297Z,65.60
2019-05-06T08:10:03.028Z,66.50
2019-05-06T08:12:32.733Z,60.50
2019-05-06T08:15:05.161Z,60.10
2019-05-06T08:17:38.113Z,58.00
2019-05-06T08:20:09.251Z,56.10
2019-05-06T08:23:09.731Z,55.00
2019-05-06T08:25:42.619Z,54.60
2019-05-06T08:28:13.209Z,54.90
2019-05-06T08:30:43.272Z,54.70
2019-05-06T08:33:12.940Z,55.00
2019-05-06T08:35:42.706Z,56.10
2019-05-06T08:38:12.357Z,54.60
2019-05-06T08:40:43.112Z,53.30
2019-05-06T08:43:13.219Z,54.30
2019-05-06T08:45:42.699Z,54.20
2019-05-06T08:48:13.002Z,52.10
2019-05-06T08:50:57.181Z,50.40
2019-05-06T08:53:53.368Z,49.60
2019-05-06T08:56:22.942Z,49.80
2019-05-06T08:58:53.006Z,50.30
2019-05-06T09:01:53.356Z,51.70
2019-05-06T09:04:22.933Z,52.80
2019-05-06T09:07:32.021Z,54.80
2019-05-06T09:10:02.653Z,55.00
2019-05-06T09:12:32.915Z,55.10
2019-05-06T09:15:03.510Z,56.20
2019-05-06T09:17:33.180Z,54.40
2019-05-06T09:20:02.999Z,53.40
2019-05-06T09:22:32.695Z,53.40
2019-05-06T09:25:02.547Z,53.50
2019-05-06T09:27:49.996Z,54.30
2019-05-06T09:30:26.930Z,55.00
2019-05-06T09:32:57.808Z,55.80
2019-05-06T09:35:27.172Z,57.20
2019-05-06T09:37:56.555Z,58.10
2019-05-06T09:40:26.007Z,58.40
2019-05-06T09:42:55.561Z,59.80
2019-05-06T09:45:25.048Z,60.30
2019-05-06T09:48:06.885Z,60.20
2019-05-06T09:50:48.415Z,60.80
2019-05-06T09:53:26.497Z,60.70
2019-05-06T09:56:13.795Z,60.80
2019-05-06T09:58:44.519Z,61.20
2019-05-06T10:01:14.829Z,60.60
2019-05-06T10:03:44.221Z,60.70
2019-05-06T10:06:13.667Z,60.90
2019-05-06T10:08:43.094Z,61.80
2019-05-06T10:11:12.526Z,63.60
2019-05-06T10:13:43.064Z,62.90
2019-05-06T10:16:13.091Z,62.00
2019-05-06T10:18:42.575Z,61.60
2019-05-06T10:21:12.472Z,59.50
2019-05-06T10:23:42.435Z,60.90
2019-05-06T10:26:12.960Z,59.60
2019-05-06T10:29:12.704Z,57.20
2019-05-06T10:31:45.918Z,54.40
2019-05-06T10:34:15.298Z,52.10
2019-05-06T10:37:11.557Z,51.40
2019-05-06T10:39:34.489Z,50.80
2019-05-06T10:42:13.010Z,51.40
2019-05-06T10:45:12.395Z,52.10
2019-05-06T10:47:42.386Z,53.10
2019-05-06T10:50:12.570Z,53.50
2019-05-06T10:53:02.531Z,54.40
2019-05-06T10:55:32.521Z,55.30
2019-05-06T10:58:02.683Z,57.00
2019-05-06T11:00:33.143Z,55.20
2019-05-06T11:03:15.965Z,55.40
2019-05-06T11:05:45.554Z,56.10
2019-05-06T11:08:15.331Z,54.90
2019-05-06T11:10:45.670Z,51.90
2019-05-06T11:13:15.610Z,50.50
2019-05-06T11:15:45.441Z,48.10
2019-05-06T11:18:14.816Z,48.60
2019-05-06T11:20:44.274Z,46.60
2019-05-06T11:23:14.432Z,46.60
2019-05-06T11:25:43.991Z,44.60
2019-05-06T11:28:34.839Z,43.90
2019-05-06T11:31:27.174Z,43.80
2019-05-06T11:34:22.161Z,45.60
2019-05-06T11:37:12.052Z,45.10
2019-05-06T11:39:43.036Z,46.20
2019-05-06T11:42:25.006Z,47.30
2019-05-06T11:44:44.193Z,48.60
2019-05-06T11:47:13.818Z,46.70
2019-05-06T11:49:44.067Z,46.60
2019-05-06T11:52:13.685Z,45.30
2019-05-06T11:54:43.006Z,43.00
2019-05-06T11:57:12.846Z,42.40
2019-05-06T11:59:43.351Z,42.80
2019-05-06T12:02:16.215Z,43.60
2019-05-06T12:04:45.640Z,44.80
2019-05-06T12:07:16.073Z,46.30
2019-05-06T12:09:45.638Z,47.60
2019-05-06T12:12:15.138Z,49.40
2019-05-06T12:14:44.545Z,50.00
2019-05-06T12:17:13.960Z,51.80
2019-05-06T12:19:43.440Z,52.10
2019-05-06T12:22:12.908Z,53.20
2019-05-06T12:24:43.121Z,53.70
2019-05-06T12:27:15.629Z,54.90
2019-05-06T12:29:45.046Z,55.70
2019-05-06T12:32:25.992Z,57.10
2019-05-06T12:34:55.454Z,58.20
2019-05-06T12:37:26.655Z,59.30
2019-05-06T12:39:58.481Z,61.00
2019-05-06T12:42:47.000Z,63.70
2019-05-06T12:45:38.847Z,64.80
2019-05-06T12:48:25.979Z,65.90
2019-05-06T12:50:57.146Z,66.90
2019-05-06T12:53:26.611Z,68.50
2019-05-06T12:55:55.892Z,68.50
2019-05-06T12:58:25.358Z,70.60
2019-05-06T13:00:55.857Z,72.90
2019-05-06T13:03:25.262Z,76.20
2019-05-06T13:05:55.027Z,89.20
2019-05-06T13:08:29.032Z,87.10
2019-05-06T13:10:55.933Z,91.40
2019-05-06T13:13:25.505Z,91.80
2019-05-06T13:15:55.116Z,92.40
2019-05-06T13:18:24.540Z,92.80
2019-05-06T13:20:54.391Z,92.50
2019-05-06T13:23:39.908Z,93.40
2019-05-06T13:26:09.373Z,93.50
2019-05-06T13:28:42.552Z,93.90
2019-05-06T13:31:20.406Z,94.60
2019-05-06T13:33:48.505Z,95.60
2019-05-06T13:36:18.098Z,96.70
2019-05-06T13:38:47.421Z,97.70
2019-05-06T13:41:16.791Z,97.00
2019-05-06T13:43:53.914Z,97.20
2019-05-06T13:46:24.940Z,97.70
2019-05-06T13:49:19.540Z,98.10
2019-05-06T13:51:55.073Z,98.40
2019-05-06T13:54:24.604Z,98.70
2019-05-06T13:56:54.003Z,99.20
2019-05-06T13:59:23.426Z,98.30
2019-05-06T14:02:10.850Z,97.90
2019-05-06T14:04:44.049Z,97.40
2019-05-06T14:07:13.157Z,96.20
2019-05-06T14:09:43.665Z,95.70
2019-05-06T14:12:13.267Z,94.60
2019-05-06T14:14:43.277Z,95.10
2019-05-06T14:17:13.091Z,95.80
2019-05-06T14:19:43.693Z,95.50
2019-05-06T14:22:13.020Z,95.30
2019-05-06T14:24:47.253Z,95.50
2019-05-06T14:27:19.473Z,95.80
2019-05-06T14:29:56.669Z,96.70
2019-05-06T14:32:45.117Z,97.00
2019-05-06T14:35:17.503Z,97.00
2019-05-06T14:37:49.116Z,97.10
2019-05-06T14:40:22.522Z,97.60
2019-05-06T14:42:53.161Z,98.00
2019-05-06T14:45:22.640Z,98.20
2019-05-06T14:47:52.763Z,98.00
2019-05-06T14:50:31.804Z,98.30
2019-05-06T14:52:53.452Z,98.00
2019-05-06T14:55:27.566Z,96.90
2019-05-06T14:57:58.455Z,96.80
2019-05-06T15:00:28.012Z,96.50
2019-05-06T15:02:59.041Z,97.10
2019-05-06T15:05:28.384Z,97.40
2019-05-06T15:07:58.275Z,97.90
2019-05-06T15:10:28.835Z,98.30
2019-05-06T15:12:58.708Z,99.00
2019-05-06T15:15:28.240Z,99.70
2019-05-06T15:17:57.756Z,99.90
2019-05-06T15:20:27.376Z,99.90
2019-05-06T15:22:56.847Z,99.90
2019-05-06T15:25:26.446Z,99.90
2019-05-06T15:27:55.775Z,99.90
2019-05-06T15:30:35.721Z,99.90
2019-05-06T15:33:07.223Z,99.90
2019-05-06T15:35:44.943Z,99.90
2019-05-06T15:38:22.956Z,99.90
2019-05-06T15:40:52.691Z,99.90
2019-05-06T15:43:22.202Z,99.90
2019-05-06T15:45:52.552Z,99.90
2019-05-06T15:48:22.275Z,99.90
2019-05-06T15:50:53.220Z,99.90
2019-05-06T15:53:22.902Z,99.90
2019-05-06T15:55:54.138Z,99.90
2019-05-06T15:58:27.541Z,99.90
2019-05-06T16:00:57.110Z,99.90
2019-05-06T16:03:26.952Z,99.90
2019-05-06T16:05:56.387Z,99.90
2019-05-06T16:08:25.812Z,99.90
2019-05-06T16:10:58.625Z,99.90
2019-05-06T16:13:26.264Z,99.90
2019-05-06T16:15:55.725Z,99.90
2019-05-06T16:18:26.508Z,99.90
2019-05-06T16:20:57.537Z,99.90
2019-05-06T16:23:42.301Z,99.90
2019-05-06T16:26:12.414Z,99.90
2019-05-06T16:28:44.762Z,99.90
2019-05-06T16:31:13.054Z,99.90
2019-05-06T16:33:43.061Z,99.90
2019-05-06T16:36:13.183Z,99.90
2019-05-06T16:38:42.925Z,99.90
2019-05-06T16:41:16.049Z,99.90
2019-05-06T16:43:43.706Z,99.90
2019-05-06T16:46:13.128Z,99.90
2019-05-06T16:48:45.486Z,99.90
2019-05-06T16:51:13.701Z,99.90
2019-05-06T16:53:43.244Z,99.90
2019-05-06T16:56:33.246Z,99.90
2019-05-06T16:59:03.589Z,99.90
2019-05-06T17:01:34.655Z,99.90
2019-05-06T17:04:18.252Z,99.90
2019-05-06T17:06:47.649Z,99.90
2019-05-06T17:09:23.649Z,99.90
2019-05-06T17:11:49.358Z,99.90
2019-05-06T17:14:18.805Z,99.90
2019-05-06T17:16:48.191Z,99.90
2019-05-06T17:19:17.605Z,99.90
2019-05-06T17:21:48.459Z,99.90
2019-05-06T17:24:18.210Z,99.90
2019-05-06T17:26:47.609Z,99.90
2019-05-06T17:29:35.110Z,99.90
2019-05-06T17:32:22.199Z,99.90
2019-05-06T17:34:56.943Z,99.90
2019-05-06T17:37:42.192Z,99.90
2019-05-06T17:40:14.351Z,99.90
2019-05-06T17:42:43.723Z,99.90
2019-05-06T17:45:32.213Z,99.90
2019-05-06T17:48:12.742Z,99.90
2019-05-06T17:50:44.098Z,99.90
2019-05-06T17:53:13.856Z,99.90
2019-05-06T17:55:43.360Z,99.90
2019-05-06T17:58:13.079Z,99.90
2019-05-06T18:00:43.009Z,99.90
2019-05-06T18:03:12.430Z,99.90
2019-05-06T18:05:42.237Z,99.90
2019-05-06T18:08:12.850Z,99.90
2019-05-06T18:10:42.726Z,99.90
2019-05-06T18:13:14.178Z,99.90
2019-05-06T18:15:43.968Z,99.90
2019-05-06T18:18:13.323Z,99.90
2019-05-06T18:20:42.846Z,99.90
2019-05-06T18:23:12.892Z,99.90
2019-05-06T18:25:43.072Z,99.90
2019-05-06T18:28:12.674Z,99.90
2019-05-06T18:30:42.104Z,99.90
2019-05-06T18:33:13.297Z,99.90
2019-05-06T18:35:43.083Z,99.90
2019-05-06T18:38:12.626Z,99.90
2019-05-06T18:40:42.434Z,99.90
2019-05-06T18:43:12.754Z,99.90
2019-05-06T18:45:43.623Z,99.90
2019-05-06T18:48:13.031Z,99.90
2019-05-06T18:50:42.493Z,99.90
2019-05-06T18:53:13.369Z,99.90
2019-05-06T18:55:42.926Z,99.90
2019-05-06T18:58:12.948Z,99.90
2019-05-06T19:00:44.647Z,99.90
2019-05-06T19:03:13.844Z,99.90
2019-05-06T19:05:43.265Z,99.90
2019-05-06T19:08:37.678Z,99.90
2019-05-06T19:11:11.791Z,99.90
2019-05-06T19:13:40.925Z,99.90
2019-05-06T19:16:10.352Z,99.90
2019-05-06T19:18:42.650Z,99.90
2019-05-06T19:21:13.418Z,99.90
2019-05-06T19:23:42.911Z,99.90
2019-05-06T19:26:12.466Z,99.90
2019-05-06T19:28:43.025Z,99.90
2019-05-06T19:31:12.701Z,99.90
2019-05-06T19:33:43.160Z,99.90
2019-05-06T19:36:12.776Z,99.90
2019-05-06T19:38:42.505Z,99.90
2019-05-06T19:41:12.878Z,99.90
2019-05-06T19:43:42.337Z,99.90
2019-05-06T19:46:12.865Z,99.90
2019-05-06T19:48:43.161Z,99.90
2019-05-06T19:51:12.734Z,99.90
2019-05-06T19:53:43.865Z,99.90
2019-05-06T19:56:13.369Z,99.90
2019-05-06T19:58:43.007Z,99.90
2019-05-06T20:01:32.331Z,99.90
2019-05-06T20:04:02.576Z,99.90
2019-05-06T20:06:52.312Z,99.90
2019-05-06T20:09:46.348Z,99.90
2019-05-06T20:12:28.407Z,99.90
2019-05-06T20:15:16.759Z,99.90
2019-05-06T20:17:46.268Z,99.90
2019-05-06T20:20:15.798Z,99.90
2019-05-06T20:22:45.207Z,99.90
2019-05-06T20:25:14.713Z,99.90
2019-05-06T20:27:44.261Z,99.90
2019-05-06T20:30:13.784Z,99.90
2019-05-06T20:32:43.181Z,99.90
2019-05-06T20:35:13.142Z,99.90
2019-05-06T20:37:42.683Z,99.90
2019-05-06T20:40:14.516Z,99.90
2019-05-06T20:42:43.454Z,99.90
2019-05-06T20:45:13.495Z,99.90
2019-05-06T20:47:42.981Z,99.90
2019-05-06T20:50:13.249Z,99.90
2019-05-06T20:52:42.908Z,99.90
2019-05-06T20:55:13.697Z,99.90
2019-05-06T20:57:44.620Z,99.90
2019-05-06T21:00:14.875Z,99.90
2019-05-06T21:02:45.336Z,99.90
2019-05-06T21:05:15.040Z,99.90
2019-05-06T21:07:46.322Z,99.90
2019-05-06T21:10:17.131Z,99.90
2019-05-06T21:12:46.901Z,99.90
2019-05-06T21:15:16.782Z,99.90
2019-05-06T21:17:46.147Z,99.90
2019-05-06T21:20:16.038Z,99.90
2019-05-06T21:22:48.600Z,99.90
2019-05-06T21:25:16.494Z,99.90
2019-05-06T21:27:45.820Z,99.90
2019-05-06T21:30:15.543Z,99.90
2019-05-06T21:32:45.460Z,99.90
2019-05-06T21:35:15.347Z,99.90
2019-05-06T21:37:44.643Z,99.90
2019-05-06T21:40:33.133Z,99.90
2019-05-06T21:43:02.495Z,99.90
2019-05-06T21:45:33.187Z,99.90
2019-05-06T21:48:02.987Z,99.90
2019-05-06T21:50:33.080Z,99.90
2019-05-06T21:53:02.935Z,99.90
2019-05-06T21:55:32.606Z,99.90
2019-05-06T21:58:02.408Z,99.90
2019-05-06T22:00:43.390Z,99.90
2019-05-06T22:03:13.359Z,99.90
2019-05-06T22:05:43.104Z,99.90
2019-05-06T22:08:12.994Z,99.90
2019-05-06T22:10:42.443Z,99.90
2019-05-06T22:13:14.295Z,99.90
2019-05-06T22:15:42.860Z,99.90
2019-05-06T22:18:12.683Z,99.90
2019-05-06T22:20:59.908Z,99.90
2019-05-06T22:23:50.334Z,99.90
2019-05-06T22:26:19.819Z,99.90
2019-05-06T22:28:49.290Z,99.90
2019-05-06T22:31:18.701Z,99.90
2019-05-06T22:33:48.247Z,99.90
2019-05-06T22:36:17.558Z,99.90
2019-05-06T22:38:46.867Z,99.90
2019-05-06T22:41:16.240Z,99.90
2019-05-06T22:43:45.568Z,99.90
2019-05-06T22:46:18.008Z,99.90
2019-05-06T22:48:45.913Z,99.90
2019-05-06T22:51:15.269Z,99.90
2019-05-06T22:53:44.621Z,99.90
2019-05-06T22:56:15.043Z,99.90
2019-05-06T22:58:44.407Z,99.90
2019-05-06T23:01:32.522Z,99.90
2019-05-06T23:04:02.451Z,99.90
2019-05-06T23:06:32.993Z,99.90
2019-05-06T23:09:02.683Z,99.90
2019-05-06T23:11:33.013Z,99.90
2019-05-06T23:14:02.849Z,99.90
2019-05-06T23:16:32.856Z,99.90
2019-05-06T23:19:03.168Z,99.90
2019-05-06T23:21:33.685Z,99.90
2019-05-06T23:24:03.142Z,99.90
2019-05-06T23:26:32.449Z,99.90
2019-05-06T23:29:02.403Z,99.90
2019-05-06T23:31:33.203Z,99.90
2019-05-06T23:34:04.928Z,99.90
2019-05-06T23:37:27.297Z,99.90
2019-05-06T23:40:42.522Z,99.90
2019-05-06T23:43:47.118Z,99.90
2019-05-06T23:46:52.923Z,99.90
2019-05-06T23:49:58.319Z,99.90
2019-05-06T23:53:03.515Z,99.90
2019-05-06T23:56:09.044Z,99.90
2019-05-06T23:58:38.417Z,99.90
